createdAt,value
2024-03-10T00:01:46.706Z,100231.13
2024-03-10T00:04:17.095Z,100224.94
2024-03-10T00:06:46.858Z,100216.56
2024-03-10T00:09:20.609Z,100220.80
2024-03-10T00:11:50.529Z,100216.19
2024-03-10T00:14:22.685Z,100210.68
2024-03-10T00:16:53.735Z,100208.76
2024-03-10T00:19:23.309Z,100203.77
2024-03-10T00:21:56.011Z,100207.05
2024-03-10T00:24:29.344Z,100202.08
2024-03-10T00:27:00.167Z,100200.71
2024-03-10T00:29:33.176Z,100198.98
2024-03-10T00:32:02.280Z,100195.53
2024-03-10T00:34:32.505Z,100199.06
2024-03-10T00:37:03.340Z,100198.93
2024-03-10T00:39:33.589Z,100201.65
2024-03-10T00:42:17.048Z,100205.25
2024-03-10T00:44:47.808Z,100203.95
2024-03-10T00:47:18.312Z,100206.67
2024-03-10T00:49:52.942Z,100207.52
2024-03-10T00:52:25.132Z,100203.79
2024-03-10T00:54:58.478Z,100203.08
2024-03-10T00:57:28.292Z,100199.22
2024-03-10T00:59:58.100Z,100191.60
2024-03-10T01:02:35.191Z,100192.92
2024-03-10T01:05:06.716Z,100191.22
2024-03-10T01:07:39.181Z,100189.13
2024-03-10T01:10:09.458Z,100185.94
2024-03-10T01:12:39.581Z,100180.55
2024-03-10T01:15:13.102Z,100173.35
2024-03-10T01:17:44.593Z,100173.29
2024-03-10T01:20:34.026Z,100169.93
2024-03-10T01:23:05.058Z,100166.36
2024-03-10T01:25:36.839Z,100154.49
2024-03-10T01:28:09.527Z,100150.30
2024-03-10T01:30:56.133Z,100150.99
2024-03-10T01:33:26.555Z,100153.97
2024-03-10T01:35:59.179Z,100150.30
2024-03-10T01:38:29.325Z,100141.92
2024-03-10T01:41:00.578Z,100133.90
2024-03-10T01:43:33.108Z,100126.79
2024-03-10T01:46:09.460Z,100120.83
2024-03-10T01:48:42.630Z,100128.17
2024-03-10T01:51:15.927Z,100133.83
2024-03-10T01:53:45.821Z,100135.82
2024-03-10T01:56:17.594Z,100136.85
2024-03-10T01:58:49.256Z,100134.87
2024-03-10T02:01:29.889Z,100131.15
2024-03-10T02:04:03.442Z,100127.52
2024-03-10T02:06:36.935Z,100130.85
2024-03-10T02:09:14.636Z,100134.66
2024-03-10T02:11:45.608Z,100137.89
2024-03-10T02:14:17.277Z,100134.94
2024-03-10T02:16:45.863Z,100122.48
2024-03-10T02:19:19.062Z,100115.96
2024-03-10T02:21:51.451Z,100115.34
2024-03-10T02:24:41.494Z,100115.77
2024-03-10T02:27:19.885Z,100114.53
2024-03-10T02:30:22.830Z,100120.95
2024-03-10T02:33:20.374Z,100122.86
2024-03-10T02:36:08.292Z,100113.63
2024-03-10T02:38:56.717Z,100114.70
2024-03-10T02:41:47.509Z,100115.95
2024-03-10T02:44:37.889Z,100115.02
2024-03-10T02:47:15.462Z,100105.30
2024-03-10T02:49:45.066Z,100105.06
2024-03-10T02:52:15.703Z,100105.68
2024-03-10T02:54:43.552Z,100112.64
2024-03-10T02:57:15.078Z,100113.25
2024-03-10T02:59:47.025Z,100107.92
2024-03-10T03:02:20.752Z,100109.23
2024-03-10T03:04:52.198Z,100110.54
2024-03-10T03:07:21.198Z,100106.83
2024-03-10T03:10:00.651Z,100100.06
2024-03-10T03:12:30.195Z,100105.09
2024-03-10T03:15:01.432Z,100104.13
2024-03-10T03:17:32.736Z,100102.77
2024-03-10T03:20:19.493Z,100107.63
2024-03-10T03:22:48.807Z,100109.13
2024-03-10T03:25:22.170Z,100108.04
2024-03-10T03:27:52.789Z,100100.49
2024-03-10T03:30:21.776Z,100093.89
2024-03-10T03:33:08.514Z,100087.77
2024-03-10T03:35:41.345Z,100085.14
2024-03-10T03:38:13.571Z,100078.50
2024-03-10T03:41:07.116Z,100076.04
2024-03-10T03:43:38.513Z,100070.13
2024-03-10T03:46:10.426Z,100072.34
2024-03-10T03:48:40.367Z,100073.96
2024-03-10T03:51:10.969Z,100071.63
2024-03-10T03:53:40.216Z,100073.48
2024-03-10T03:56:10.636Z,100073.43
2024-03-10T03:58:40.560Z,100074.71
2024-03-10T04:01:12.116Z,100069.54
2024-03-10T04:03:42.147Z,100063.52
2024-03-10T04:06:13.090Z,100064.90
2024-03-10T04:08:44.447Z,100059.71
2024-03-10T04:11:13.927Z,100054.27
2024-03-10T04:13:53.407Z,100047.80
2024-03-10T04:16:24.411Z,100045.48
2024-03-10T04:18:55.105Z,100039.67
2024-03-10T04:21:24.907Z,100033.30
2024-03-10T04:23:55.417Z,100030.33
2024-03-10T04:26:28.078Z,100024.05
2024-03-10T04:28:58.346Z,100028.53
2024-03-10T04:31:30.982Z,100030.85
2024-03-10T04:34:00.220Z,100033.55
2024-03-10T04:36:32.720Z,100034.61
2024-03-10T04:39:06.345Z,100036.42
2024-03-10T04:41:40.543Z,100040.83
2024-03-10T04:44:08.802Z,100055.65
2024-03-10T04:46:41.117Z,100057.77
2024-03-10T04:49:13.959Z,100057.98
2024-03-10T04:51:45.452Z,100056.88
2024-03-10T04:54:15.360Z,100053.27
2024-03-10T04:56:46.559Z,100055.59
2024-03-10T04:59:20.633Z,100058.23
2024-03-10T05:01:51.766Z,100058.89
2024-03-10T05:04:21.441Z,100058.13
2024-03-10T05:06:49.191Z,100058.58
2024-03-10T05:09:22.210Z,100059.74
2024-03-10T05:11:55.914Z,100058.96
2024-03-10T05:14:26.266Z,100057.25
2024-03-10T05:17:05.330Z,100053.75
2024-03-10T05:19:37.381Z,100055.27
2024-03-10T05:22:06.593Z,100056.14
2024-03-10T05:24:37.694Z,100063.40
2024-03-10T05:27:09.110Z,100062.97
2024-03-10T05:29:47.501Z,100064.52
2024-03-10T05:32:18.524Z,100068.63
2024-03-10T05:34:50.801Z,100071.73
2024-03-10T05:37:20.556Z,100070.47
2024-03-10T05:39:57.174Z,100075.73
2024-03-10T05:42:29.149Z,100072.11
2024-03-10T05:45:04.367Z,100077.27
2024-03-10T05:47:36.062Z,100079.29
2024-03-10T05:50:06.471Z,100079.94
2024-03-10T05:52:35.939Z,100082.07
2024-03-10T05:55:09.574Z,100078.48
2024-03-10T05:57:40.354Z,100072.98
2024-03-10T06:00:16.991Z,100066.57
2024-03-10T06:02:49.916Z,100065.17
2024-03-10T06:05:23.046Z,100063.61
2024-03-10T06:07:57.967Z,100064.12
2024-03-10T06:10:29.211Z,100062.05
2024-03-10T06:13:01.610Z,100054.20
2024-03-10T06:15:31.384Z,100045.70
2024-03-10T06:18:20.283Z,100042.04
2024-03-10T06:21:10.354Z,100044.70
2024-03-10T06:24:02.026Z,100050.55
2024-03-10T06:26:41.797Z,100052.77
2024-03-10T06:29:13.050Z,100048.78
2024-03-10T06:31:42.797Z,100048.52
2024-03-10T06:34:15.131Z,100055.05
2024-03-10T06:36:46.807Z,100058.59
2024-03-10T06:39:21.226Z,100066.10
2024-03-10T06:41:53.343Z,100069.20
2024-03-10T06:44:29.323Z,100073.40
2024-03-10T06:46:58.871Z,100074.04
2024-03-10T06:49:30.905Z,100078.17
2024-03-10T06:52:01.567Z,100082.94
2024-03-10T06:54:30.896Z,100082.17
2024-03-10T06:57:10.780Z,100085.17
2024-03-10T06:59:43.177Z,100086.30
2024-03-10T07:02:14.099Z,100087.73
2024-03-10T07:04:48.399Z,100088.61
2024-03-10T07:07:18.619Z,100092.20
2024-03-10T07:09:48.824Z,100090.52
2024-03-10T07:12:36.388Z,100089.88
2024-03-10T07:15:05.129Z,100083.56
2024-03-10T07:17:34.700Z,100077.03
2024-03-10T07:20:07.107Z,100072.02
2024-03-10T07:22:39.534Z,100064.73
2024-03-10T07:25:17.019Z,100058.91
2024-03-10T07:27:55.072Z,100057.30
2024-03-10T07:30:25.239Z,100058.20
2024-03-10T07:32:54.050Z,100057.40
2024-03-10T07:35:25.596Z,100053.62
2024-03-10T07:37:58.905Z,100051.79
2024-03-10T07:40:48.227Z,100055.45
2024-03-10T07:43:24.997Z,100066.19
2024-03-10T07:45:55.624Z,100070.38
2024-03-10T07:48:26.334Z,100069.19
2024-03-10T07:50:57.162Z,100072.55
2024-03-10T07:53:26.804Z,100073.46
2024-03-10T07:56:00.098Z,100075.57
2024-03-10T07:58:32.574Z,100083.80
2024-03-10T08:01:02.888Z,100084.40
2024-03-10T08:03:32.800Z,100090.45
2024-03-10T08:06:02.237Z,100089.38
2024-03-10T08:08:32.190Z,100082.64
2024-03-10T08:11:05.421Z,100086.33
2024-03-10T08:13:37.732Z,100085.14
2024-03-10T08:16:10.907Z,100083.95
2024-03-10T08:18:42.582Z,100080.86
2024-03-10T08:21:15.177Z,100077.74
2024-03-10T08:23:46.641Z,100070.06
2024-03-10T08:26:16.359Z,100058.54
2024-03-10T08:28:49.382Z,100045.48
2024-03-10T08:31:23.530Z,100046.93
2024-03-10T08:33:57.012Z,100047.95
2024-03-10T08:36:24.693Z,100038.27
2024-03-10T08:38:56.208Z,100040.73
2024-03-10T08:41:27.250Z,100046.39
2024-03-10T08:43:58.276Z,100062.02
2024-03-10T08:46:26.852Z,100066.24
2024-03-10T08:49:00.421Z,100078.43
2024-03-10T08:51:37.246Z,100080.58
2024-03-10T08:54:10.359Z,100083.94
2024-03-10T08:56:50.835Z,100088.32
2024-03-10T08:59:29.628Z,100087.29
2024-03-10T09:01:58.024Z,100077.45
2024-03-10T09:04:27.441Z,100078.89
2024-03-10T09:07:00.333Z,100079.96
2024-03-10T09:09:29.845Z,100075.92
2024-03-10T09:12:02.868Z,100062.88
2024-03-10T09:14:36.581Z,100059.27
2024-03-10T09:17:07.144Z,100060.86
2024-03-10T09:19:36.778Z,100050.73
2024-03-10T09:22:09.697Z,100048.30
2024-03-10T09:24:44.230Z,100049.95
2024-03-10T09:27:16.641Z,100052.43
2024-03-10T09:29:48.818Z,100041.09
2024-03-10T09:32:22.977Z,100035.41
2024-03-10T09:34:58.335Z,100027.25
2024-03-10T09:37:30.837Z,100018.92
2024-03-10T09:40:01.537Z,100016.08
2024-03-10T09:42:32.556Z,100015.34
2024-03-10T09:45:01.580Z,100011.58
2024-03-10T09:47:42.313Z,100015.98
2024-03-10T09:50:20.398Z,100008.86
2024-03-10T09:52:50.531Z,100002.65
2024-03-10T09:55:22.250Z,99990.23
2024-03-10T09:57:54.713Z,99978.73
2024-03-10T10:00:29.809Z,99979.22
2024-03-10T10:03:07.875Z,99984.82
2024-03-10T10:05:46.536Z,99987.34
2024-03-10T10:08:19.701Z,99997.30
2024-03-10T10:10:54.109Z,99998.86
2024-03-10T10:13:27.403Z,100000.16
2024-03-10T10:16:09.993Z,100001.90
2024-03-10T10:18:47.664Z,99991.41
2024-03-10T10:21:30.294Z,99996.51
2024-03-10T10:24:03.433Z,99999.19
2024-03-10T10:26:36.589Z,100004.20
2024-03-10T10:29:09.684Z,100002.98
2024-03-10T10:31:42.026Z,100002.96
2024-03-10T10:34:17.728Z,99995.16
2024-03-10T10:36:52.998Z,99986.50
2024-03-10T10:39:32.624Z,99981.73
2024-03-10T10:42:02.622Z,99986.80
2024-03-10T10:44:34.596Z,99993.52
2024-03-10T10:47:08.053Z,99996.58
2024-03-10T10:49:41.435Z,99991.48
2024-03-10T10:52:13.724Z,99979.89
2024-03-10T10:54:42.729Z,99977.07
2024-03-10T10:57:12.193Z,99977.87
2024-03-10T10:59:41.930Z,99974.73
2024-03-10T11:02:17.406Z,99973.70
2024-03-10T11:04:48.265Z,99972.42
2024-03-10T11:07:17.932Z,99975.10
2024-03-10T11:09:51.153Z,99969.86
2024-03-10T11:12:21.121Z,99963.06
2024-03-10T11:14:59.917Z,99959.10
2024-03-10T11:17:31.668Z,99952.16
2024-03-10T11:20:11.365Z,99947.81
2024-03-10T11:23:08.984Z,99939.16
2024-03-10T11:25:52.207Z,99935.63
2024-03-10T11:28:34.941Z,99932.73
2024-03-10T11:31:06.473Z,99931.98
2024-03-10T11:33:37.536Z,99916.58
2024-03-10T11:36:12.079Z,99909.11
2024-03-10T11:38:42.126Z,99898.77
2024-03-10T11:41:20.773Z,99897.86
2024-03-10T11:44:13.360Z,99894.29
2024-03-10T11:46:58.875Z,99892.14
2024-03-10T11:49:34.570Z,99883.38
2024-03-10T11:52:09.405Z,99874.83
2024-03-10T11:54:42.015Z,99872.47
2024-03-10T11:57:33.233Z,99864.71
2024-03-10T12:00:07.099Z,99864.08
2024-03-10T12:03:06.787Z,99862.96
2024-03-10T12:05:41.299Z,99864.06
2024-03-10T12:08:15.602Z,99864.84
2024-03-10T12:10:49.442Z,99861.67
2024-03-10T12:13:24.957Z,99862.83
2024-03-10T12:16:00.208Z,99863.00
2024-03-10T12:18:38.166Z,99865.73
2024-03-10T12:21:16.483Z,99863.27
2024-03-10T12:23:48.883Z,99862.52
2024-03-10T12:26:31.417Z,99861.06
2024-03-10T12:29:02.086Z,99858.45
2024-03-10T12:31:51.891Z,99855.51
2024-03-10T12:34:35.314Z,99852.19
2024-03-10T12:37:08.777Z,99848.29
2024-03-10T12:39:39.011Z,99849.33
2024-03-10T12:42:11.490Z,99844.23
2024-03-10T12:44:43.440Z,99842.54
2024-03-10T12:47:12.068Z,99834.99
2024-03-10T12:49:41.604Z,99831.80
2024-03-10T12:52:37.815Z,99833.23
2024-03-10T12:55:11.602Z,99830.21
2024-03-10T12:57:59.560Z,99822.84
2024-03-10T13:00:32.718Z,99813.69
2024-03-10T13:03:03.383Z,99812.08
2024-03-10T13:05:36.192Z,99804.72
2024-03-10T13:08:26.367Z,99807.70
2024-03-10T13:10:57.862Z,99803.14
2024-03-10T13:13:26.879Z,99800.25
2024-03-10T13:15:57.297Z,99796.33
2024-03-10T13:18:56.472Z,99796.98
2024-03-10T13:21:27.495Z,99794.56
2024-03-10T13:23:56.264Z,99789.61
2024-03-10T13:26:24.277Z,99790.48
2024-03-10T13:28:54.857Z,99784.90
2024-03-10T13:31:24.842Z,99783.75
2024-03-10T13:33:59.415Z,99783.65
2024-03-10T13:36:29.130Z,99783.53
2024-03-10T13:38:58.239Z,99782.38
2024-03-10T13:41:29.297Z,99781.10
2024-03-10T13:43:57.515Z,99782.61
2024-03-10T13:46:28.710Z,99782.08
2024-03-10T13:48:59.126Z,99778.81
2024-03-10T13:51:27.423Z,99781.14
2024-03-10T13:53:57.232Z,99777.09
2024-03-10T13:56:28.829Z,99779.52
2024-03-10T13:58:57.555Z,99780.27
2024-03-10T14:01:28.160Z,99774.48
2024-03-10T14:04:07.991Z,99769.41
2024-03-10T14:07:01.328Z,99771.02
2024-03-10T14:09:32.822Z,99763.87
2024-03-10T14:12:09.116Z,99759.71
2024-03-10T14:14:36.828Z,99755.98
2024-03-10T14:17:07.288Z,99749.90
2024-03-10T14:19:39.744Z,99749.40
2024-03-10T14:22:08.480Z,99744.98
2024-03-10T14:24:36.610Z,99750.89
2024-03-10T14:27:10.108Z,99748.44
2024-03-10T14:29:41.507Z,99748.50
2024-03-10T14:32:13.313Z,99743.13
2024-03-10T14:34:41.743Z,99738.98
2024-03-10T14:37:10.070Z,99738.27
2024-03-10T14:39:38.552Z,99737.27
2024-03-10T14:42:13.937Z,99734.10
2024-03-10T14:44:45.935Z,99728.27
2024-03-10T14:47:22.827Z,99729.05
2024-03-10T14:49:50.334Z,99729.95
2024-03-10T14:52:24.775Z,99721.90
2024-03-10T14:54:54.802Z,99719.61
2024-03-10T14:57:29.661Z,99714.48
2024-03-10T15:00:02.385Z,99713.13
2024-03-10T15:02:30.814Z,99709.81
2024-03-10T15:05:00.787Z,99701.67
2024-03-10T15:07:43.001Z,99697.50
2024-03-10T15:10:16.293Z,99700.13
2024-03-10T15:12:47.504Z,99693.80
2024-03-10T15:15:21.414Z,99686.30
2024-03-10T15:17:50.844Z,99679.98
2024-03-10T15:20:21.469Z,99678.65
2024-03-10T15:22:55.678Z,99680.80
2024-03-10T15:25:28.087Z,99685.52
2024-03-10T15:28:00.198Z,99685.70
2024-03-10T15:30:29.833Z,99688.11
2024-03-10T15:32:59.825Z,99684.42
2024-03-10T15:35:28.475Z,99686.14
2024-03-10T15:37:57.656Z,99684.17
2024-03-10T15:40:28.448Z,99682.51
2024-03-10T15:43:15.619Z,99678.80
2024-03-10T15:45:48.823Z,99683.80
2024-03-10T15:48:20.850Z,99681.90
2024-03-10T15:50:56.102Z,99685.08
2024-03-10T15:53:27.981Z,99687.70
2024-03-10T15:56:01.293Z,99680.79
2024-03-10T15:58:30.187Z,99684.38
2024-03-10T16:01:03.141Z,99688.30
2024-03-10T16:03:49.587Z,99693.98
2024-03-10T16:06:19.357Z,99696.39
2024-03-10T16:08:51.178Z,99700.16
2024-03-10T16:11:20.035Z,99702.70
2024-03-10T16:14:04.020Z,99706.20
2024-03-10T16:16:36.596Z,99708.47
2024-03-10T16:19:05.402Z,99711.48
2024-03-10T16:21:39.371Z,99716.75
2024-03-10T16:24:14.983Z,99724.27
2024-03-10T16:26:45.880Z,99723.35
2024-03-10T16:29:17.086Z,99725.48
2024-03-10T16:31:56.099Z,99732.48
2024-03-10T16:34:32.165Z,99731.81
2024-03-10T16:37:02.978Z,99735.05
2024-03-10T16:39:53.907Z,99736.20
2024-03-10T16:42:45.783Z,99737.43
2024-03-10T16:45:21.446Z,99740.50
2024-03-10T16:48:01.581Z,99736.80
2024-03-10T16:50:38.881Z,99736.78
2024-03-10T16:53:09.337Z,99739.96
2024-03-10T16:55:41.128Z,99742.88
2024-03-10T16:58:11.102Z,99745.98
2024-03-10T17:00:46.684Z,99743.10
2024-03-10T17:03:18.413Z,99738.27
2024-03-10T17:05:49.673Z,99734.99
2024-03-10T17:08:24.692Z,99736.75
2024-03-10T17:10:55.823Z,99734.00
2024-03-10T17:13:28.563Z,99733.10
2024-03-10T17:16:23.465Z,99733.55
2024-03-10T17:18:52.257Z,99724.89
2024-03-10T17:21:24.986Z,99721.81
2024-03-10T17:23:57.734Z,99725.72
2024-03-10T17:26:29.553Z,99723.30
2024-03-10T17:29:02.498Z,99722.80
2024-03-10T17:31:34.748Z,99718.68
2024-03-10T17:34:03.526Z,99715.72
2024-03-10T17:36:34.312Z,99710.71
2024-03-10T17:39:05.981Z,99704.01
2024-03-10T17:41:40.825Z,99701.40
2024-03-10T17:44:10.771Z,99699.52
2024-03-10T17:46:40.423Z,99698.52
2024-03-10T17:49:12.623Z,99695.48
2024-03-10T17:51:43.305Z,99690.11
2024-03-10T17:54:36.011Z,99686.64
2024-03-10T17:57:15.249Z,99682.36
2024-03-10T17:59:56.668Z,99675.87
2024-03-10T18:02:26.182Z,99676.95
2024-03-10T18:05:03.332Z,99674.40
2024-03-10T18:07:33.032Z,99666.98
2024-03-10T18:10:06.519Z,99661.16
2024-03-10T18:12:49.312Z,99661.80
2024-03-10T18:15:27.391Z,99661.94
2024-03-10T18:18:01.462Z,99666.90
2024-03-10T18:20:31.750Z,99660.95
2024-03-10T18:23:02.343Z,99656.95
2024-03-10T18:25:37.906Z,99661.29
2024-03-10T18:28:45.083Z,99666.70
2024-03-10T18:31:24.408Z,99666.14
2024-03-10T18:33:55.650Z,99667.31
2024-03-10T18:36:46.543Z,99665.77
2024-03-10T18:39:20.925Z,99662.42
2024-03-10T18:42:02.957Z,99664.05
2024-03-10T18:44:35.709Z,99656.43
2024-03-10T18:47:11.303Z,99655.05
2024-03-10T18:49:49.027Z,99656.06
2024-03-10T18:52:23.200Z,99657.55
2024-03-10T18:54:53.579Z,99656.00
2024-03-10T18:57:45.583Z,99658.46
2024-03-10T19:00:25.903Z,99655.23
2024-03-10T19:03:08.390Z,99655.25
2024-03-10T19:05:37.157Z,99650.34
2024-03-10T19:08:16.287Z,99648.17
2024-03-10T19:10:48.844Z,99646.17
2024-03-10T19:13:32.510Z,99646.77
2024-03-10T19:16:05.899Z,99655.69
2024-03-10T19:18:34.782Z,99650.48
2024-03-10T19:21:17.246Z,99647.17
2024-03-10T19:23:51.376Z,99643.55
2024-03-10T19:26:21.752Z,99637.56
2024-03-10T19:29:28.364Z,99646.01
2024-03-10T19:32:01.377Z,99643.10
2024-03-10T19:34:53.506Z,99644.47
2024-03-10T19:37:48.986Z,99642.37
2024-03-10T19:40:24.162Z,99639.58
2024-03-10T19:43:00.351Z,99640.26
2024-03-10T19:45:58.432Z,99641.39
2024-03-10T19:48:31.286Z,99639.96
2024-03-10T19:51:24.434Z,99636.21
2024-03-10T19:53:58.109Z,99641.87
2024-03-10T19:56:29.938Z,99640.73
2024-03-10T19:59:05.155Z,99640.89
2024-03-10T20:01:36.663Z,99637.45
2024-03-10T20:04:30.050Z,99635.00
2024-03-10T20:07:00.593Z,99634.38
2024-03-10T20:09:36.662Z,99635.77
2024-03-10T20:12:10.375Z,99633.29
2024-03-10T20:14:44.283Z,99631.16
2024-03-10T20:17:42.687Z,99628.36
2024-03-10T20:20:26.934Z,99632.63
2024-03-10T20:23:15.534Z,99633.05
2024-03-10T20:26:04.659Z,99627.35
2024-03-10T20:28:52.362Z,99627.35
2024-03-10T20:31:35.668Z,99629.89
2024-03-10T20:34:32.171Z,99619.77
2024-03-10T20:37:20.079Z,99627.80
2024-03-10T20:39:54.295Z,99636.88
2024-03-10T20:42:25.434Z,99638.61
2024-03-10T20:44:57.663Z,99633.17
2024-03-10T20:47:37.307Z,99631.85
2024-03-10T20:50:36.447Z,99644.58
2024-03-10T20:53:29.182Z,99647.27
2024-03-10T20:56:09.895Z,99651.58
2024-03-10T20:58:41.272Z,99649.20
2024-03-10T21:01:23.556Z,99642.89
2024-03-10T21:04:02.536Z,99649.98
2024-03-10T21:06:40.102Z,99649.98
2024-03-10T21:09:27.415Z,99649.00
2024-03-10T21:12:02.663Z,99648.88
2024-03-10T21:14:32.497Z,99659.31
2024-03-10T21:17:05.536Z,99661.52
2024-03-10T21:19:40.628Z,99658.30
2024-03-10T21:22:11.555Z,99651.91
2024-03-10T21:24:48.286Z,99653.70
2024-03-10T21:27:21.258Z,99648.59
2024-03-10T21:29:54.875Z,99642.95
2024-03-10T21:32:24.765Z,99640.94
2024-03-10T21:34:57.161Z,99637.23
2024-03-10T21:37:29.075Z,99644.55
2024-03-10T21:40:16.054Z,99645.64
2024-03-10T21:42:48.602Z,99651.36
2024-03-10T21:45:17.976Z,99652.79
2024-03-10T21:47:47.401Z,99650.14
2024-03-10T21:50:21.866Z,99650.86
2024-03-10T21:52:52.360Z,99643.69
2024-03-10T21:55:24.660Z,99648.52
2024-03-10T21:57:58.181Z,99654.89
2024-03-10T22:00:29.238Z,99655.91
2024-03-10T22:03:00.752Z,99655.10
2024-03-10T22:05:29.988Z,99654.84
2024-03-10T22:08:09.716Z,99659.86
2024-03-10T22:10:43.593Z,99654.35
2024-03-10T22:13:13.603Z,99658.43
2024-03-10T22:16:10.730Z,99655.18
2024-03-10T22:18:41.137Z,99651.57
2024-03-10T22:21:12.520Z,99648.56
2024-03-10T22:23:44.899Z,99649.83
2024-03-10T22:26:16.155Z,99653.50
2024-03-10T22:28:51.957Z,99650.73
2024-03-10T22:31:22.860Z,99647.83
2024-03-10T22:33:52.142Z,99650.09
2024-03-10T22:36:22.600Z,99650.34
2024-03-10T22:38:54.778Z,99651.01
2024-03-10T22:41:27.153Z,99649.98
2024-03-10T22:43:59.815Z,99649.91
2024-03-10T22:46:33.580Z,99647.86
2024-03-10T22:49:04.544Z,99653.48
2024-03-10T22:51:33.299Z,99652.63
2024-03-10T22:54:06.367Z,99652.99
2024-03-10T22:56:36.292Z,99653.39
2024-03-10T22:59:08.007Z,99655.10
2024-03-10T23:01:54.732Z,99654.79
2024-03-10T23:04:25.115Z,99654.33
2024-03-10T23:06:54.428Z,99652.26
2024-03-10T23:09:26.782Z,99652.61
2024-03-10T23:12:00.718Z,99653.27
2024-03-10T23:14:34.370Z,99649.29
2024-03-10T23:17:04.010Z,99646.42
2024-03-10T23:19:35.780Z,99647.16
2024-03-10T23:22:21.896Z,99640.69
2024-03-10T23:24:53.533Z,99645.85
2024-03-10T23:27:36.527Z,99652.42
2024-03-10T23:30:09.795Z,99649.16
2024-03-10T23:32:41.911Z,99651.36
2024-03-10T23:35:14.077Z,99653.03
2024-03-10T23:37:44.969Z,99656.23
2024-03-10T23:40:17.151Z,99655.73
2024-03-10T23:42:48.609Z,99658.61
2024-03-10T23:45:16.969Z,99654.21
2024-03-10T23:47:51.584Z,99653.48
2024-03-10T23:50:24.701Z,99646.86
2024-03-10T23:52:55.308Z,99646.20
2024-03-10T23:55:35.139Z,99642.96
2024-03-10T23:58:05.136Z,99643.15
